createdAt,value
2019-01-11T00:01:48.140Z,96220.16
2019-01-11T00:04:17.734Z,96221.30
2019-01-11T00:06:47.257Z,96220.03
2019-01-11T00:09:17.672Z,96211.48
2019-01-11T00:11:47.274Z,96216.56
2019-01-11T00:14:16.849Z,96213.10
2019-01-11T00:16:46.312Z,96213.34
2019-01-11T00:19:15.936Z,96212.53
2019-01-11T00:21:45.454Z,96222.06
2019-01-11T00:24:15.516Z,96222.54
2019-01-11T00:26:45.129Z,96224.02
2019-01-11T00:29:14.633Z,96225.34
2019-01-11T00:31:44.064Z,96220.87
2019-01-11T00:34:13.569Z,96230.88
2019-01-11T00:36:43.148Z,96228.75
2019-01-11T00:39:12.667Z,96230.90
2019-01-11T00:41:42.563Z,96230.23
2019-01-11T00:44:12.012Z,96226.64
2019-01-11T00:46:41.510Z,96224.67
2019-01-11T00:49:13.594Z,96230.92
2019-01-11T00:51:42.309Z,96227.63
2019-01-11T00:54:11.829Z,96233.55
2019-01-11T00:56:41.974Z,96230.28
2019-01-11T00:59:11.477Z,96223.39
2019-01-11T01:01:40.999Z,96225.35
2019-01-11T01:04:10.484Z,96227.96
2019-01-11T01:06:39.996Z,96227.30
2019-01-11T01:09:09.667Z,96227.28
2019-01-11T01:11:39.470Z,96232.06
2019-01-11T01:14:09.124Z,96234.99
2019-01-11T01:16:38.569Z,96237.45
2019-01-11T01:19:08.106Z,96246.17
2019-01-11T01:21:37.546Z,96246.64
2019-01-11T01:24:07.203Z,96243.53
2019-01-11T01:26:36.732Z,96246.48
2019-01-11T01:29:06.862Z,96247.95
2019-01-11T01:31:36.338Z,96241.91
2019-01-11T01:34:05.972Z,96243.36
2019-01-11T01:36:35.499Z,96244.19
2019-01-11T01:39:08.431Z,96248.78
2019-01-11T01:41:38.287Z,96251.21
2019-01-11T01:44:07.748Z,96266.97
2019-01-11T01:46:37.212Z,96265.50
2019-01-11T01:49:06.717Z,96269.75
2019-01-11T01:51:36.262Z,96270.74
2019-01-11T01:54:06.369Z,96269.58
2019-01-11T01:56:35.832Z,96270.26
2019-01-11T01:59:05.572Z,96265.66
2019-01-11T02:01:35.661Z,96270.40
2019-01-11T02:04:05.207Z,96271.88
2019-01-11T02:06:34.730Z,96276.64
2019-01-11T02:09:06.443Z,96271.70
2019-01-11T02:11:36.126Z,96283.20
2019-01-11T02:14:06.143Z,96276.64
2019-01-11T02:16:35.987Z,96283.69
2019-01-11T02:19:05.547Z,96284.83
2019-01-11T02:21:35.079Z,96288.75
2019-01-11T02:24:04.595Z,96289.24
2019-01-11T02:26:34.051Z,96287.59
2019-01-11T02:29:03.547Z,96289.56
2019-01-11T02:31:33.043Z,96284.81
2019-01-11T02:34:03.246Z,96287.27
2019-01-11T02:36:32.714Z,96281.05
2019-01-11T02:39:02.205Z,96285.32
2019-01-11T02:41:31.711Z,96281.05
2019-01-11T02:44:01.240Z,96282.35
2019-01-11T02:46:30.702Z,96268.28
2019-01-11T02:49:00.282Z,96266.14
2019-01-11T02:51:29.777Z,96260.10
2019-01-11T02:53:59.331Z,96263.34
2019-01-11T02:56:28.786Z,96259.94
2019-01-11T02:58:58.387Z,96253.52
2019-01-11T03:01:27.859Z,96257.63
2019-01-11T03:03:57.313Z,96245.34
2019-01-11T03:06:27.114Z,96249.92
2019-01-11T03:08:56.513Z,96257.48
2019-01-11T03:11:26.019Z,96256.48
2019-01-11T03:13:55.542Z,96252.23
2019-01-11T03:16:24.981Z,96242.87
2019-01-11T03:18:54.434Z,96243.37
2019-01-11T03:21:24.074Z,96243.70
2019-01-11T03:23:53.535Z,96237.16
2019-01-11T03:26:23.039Z,96238.47
2019-01-11T03:28:52.517Z,96242.40
2019-01-11T03:31:23.617Z,96237.48
2019-01-11T03:33:53.119Z,96245.52
2019-01-11T03:36:22.676Z,96245.69
2019-01-11T03:38:52.538Z,96244.86
2019-01-11T03:41:22.052Z,96242.89
2019-01-11T03:43:51.499Z,96247.95
2019-01-11T03:46:21.012Z,96247.81
2019-01-11T03:48:50.461Z,96244.67
2019-01-11T03:51:19.964Z,96245.83
2019-01-11T03:53:49.402Z,96246.51
2019-01-11T03:56:18.879Z,96252.55
2019-01-11T03:58:48.358Z,96245.99
2019-01-11T04:01:17.860Z,96252.55
2019-01-11T04:03:47.353Z,96246.50
2019-01-11T04:06:16.913Z,96247.62
2019-01-11T04:08:46.417Z,96251.39
2019-01-11T04:11:16.334Z,96247.47
2019-01-11T04:13:45.851Z,96251.22
2019-01-11T04:16:15.337Z,96249.42
2019-01-11T04:18:46.464Z,96249.28
2019-01-11T04:21:15.910Z,96252.70
2019-01-11T04:23:45.435Z,96255.16
2019-01-11T04:26:14.943Z,96257.63
2019-01-11T04:28:44.477Z,96259.77
2019-01-11T04:31:13.957Z,96258.77
2019-01-11T04:33:43.438Z,96261.56
2019-01-11T04:36:12.884Z,96263.84
2019-01-11T04:38:42.446Z,96266.81
2019-01-11T04:41:11.903Z,96270.74
2019-01-11T04:43:42.037Z,96267.12
2019-01-11T04:46:11.642Z,96263.05
2019-01-11T04:48:41.426Z,96265.16
2019-01-11T04:51:10.986Z,96261.06
2019-01-11T04:53:40.454Z,96259.75
2019-01-11T04:56:09.957Z,96261.88
2019-01-11T04:58:39.466Z,96262.89
2019-01-11T05:01:08.985Z,96259.76
2019-01-11T05:03:38.575Z,96263.52
2019-01-11T05:06:08.183Z,96268.27
2019-01-11T05:08:37.623Z,96257.13
2019-01-11T05:11:08.055Z,96260.75
2019-01-11T05:13:38.289Z,96263.02
2019-01-11T05:16:08.379Z,96260.09
2019-01-11T05:18:37.882Z,96258.45
2019-01-11T05:21:07.384Z,96258.45
2019-01-11T05:23:36.915Z,96262.55
2019-01-11T05:26:06.447Z,96259.93
2019-01-11T05:28:35.918Z,96264.03
2019-01-11T05:31:05.467Z,96264.03
2019-01-11T05:33:34.936Z,96264.03
2019-01-11T05:36:15.437Z,96246.31
2019-01-11T05:38:45.164Z,96265.83
2019-01-11T05:41:14.953Z,96263.52
2019-01-11T05:43:44.644Z,96266.80
2019-01-11T05:46:14.107Z,96264.00
2019-01-11T05:48:44.138Z,96263.35
2019-01-11T05:51:13.611Z,96265.66
2019-01-11T05:53:43.235Z,96267.28
2019-01-11T05:56:12.780Z,96268.11
2019-01-11T05:58:43.865Z,96272.69
2019-01-11T06:01:14.138Z,96272.83
2019-01-11T06:03:43.596Z,96269.38
2019-01-11T06:06:13.190Z,96272.83
2019-01-11T06:08:42.638Z,96272.34
2019-01-11T06:11:12.190Z,96270.39
2019-01-11T06:13:41.640Z,96274.00
2019-01-11T06:16:12.188Z,96275.78
2019-01-11T06:18:41.643Z,96280.55
2019-01-11T06:21:11.607Z,96274.97
2019-01-11T06:23:41.120Z,96275.14
2019-01-11T06:26:10.702Z,96274.31
2019-01-11T06:28:40.267Z,96269.90
2019-01-11T06:31:09.735Z,96276.77
2019-01-11T06:33:39.268Z,96270.55
2019-01-11T06:36:08.735Z,96270.07
2019-01-11T06:38:38.230Z,96272.52
2019-01-11T06:41:07.737Z,96269.59
2019-01-11T06:43:38.926Z,96272.87
2019-01-11T06:46:08.455Z,96273.34
2019-01-11T06:48:38.377Z,96272.83
2019-01-11T06:51:08.046Z,96271.86
2019-01-11T06:53:37.947Z,96270.86
2019-01-11T06:56:07.497Z,96271.52
2019-01-11T06:58:36.974Z,96277.59
2019-01-11T07:01:06.504Z,96280.07
2019-01-11T07:03:35.968Z,96282.34
2019-01-11T07:06:07.201Z,96279.55
2019-01-11T07:08:36.861Z,96279.38
2019-01-11T07:11:06.517Z,96278.59
2019-01-11T07:13:35.983Z,96274.31
2019-01-11T07:16:07.187Z,96291.38
2019-01-11T07:18:36.687Z,96282.37
2019-01-11T07:21:06.210Z,96280.24
2019-01-11T07:23:35.684Z,96284.00
2019-01-11T07:26:07.154Z,96284.52
2019-01-11T07:28:36.642Z,96285.17
2019-01-11T07:31:08.039Z,96287.14
2019-01-11T07:33:37.581Z,96293.17
2019-01-11T07:36:08.931Z,96296.45
2019-01-11T07:38:38.397Z,96296.14
2019-01-11T07:41:07.923Z,96295.14
2019-01-11T07:43:37.431Z,96293.17
2019-01-11T07:46:07.018Z,96292.69
2019-01-11T07:48:36.482Z,96284.83
2019-01-11T07:51:09.071Z,96292.03
2019-01-11T07:53:38.532Z,96286.64
2019-01-11T07:56:07.995Z,96292.85
2019-01-11T07:58:37.998Z,96293.83
2019-01-11T08:01:07.476Z,96293.02
2019-01-11T08:03:36.951Z,96293.52
2019-01-11T08:06:06.476Z,96301.38
2019-01-11T08:08:38.925Z,96291.38
2019-01-11T08:11:08.358Z,96300.73
2019-01-11T08:13:37.849Z,96290.55
2019-01-11T08:16:07.417Z,96296.62
2019-01-11T08:18:36.948Z,96302.69
2019-01-11T08:21:06.505Z,96303.86
2019-01-11T08:23:35.980Z,96299.75
2019-01-11T08:26:07.263Z,96301.88
2019-01-11T08:28:36.780Z,96298.43
2019-01-11T08:31:06.710Z,96299.56
2019-01-11T08:33:36.578Z,96295.48
2019-01-11T08:36:06.357Z,96295.14
2019-01-11T08:38:35.840Z,96298.42
2019-01-11T08:41:05.398Z,96296.95
2019-01-11T08:43:34.879Z,96291.70
2019-01-11T08:46:06.946Z,96292.50
2019-01-11T08:48:35.742Z,96296.77
2019-01-11T08:51:05.551Z,96295.78
2019-01-11T08:53:35.296Z,96284.95
2019-01-11T08:56:08.391Z,96296.94
2019-01-11T08:58:39.801Z,96294.48
2019-01-11T09:01:09.345Z,96294.13
2019-01-11T09:03:39.407Z,96299.08
2019-01-11T09:06:09.009Z,96300.22
2019-01-11T09:08:38.558Z,96301.69
2019-01-11T09:11:08.041Z,96300.86
2019-01-11T09:13:37.554Z,96302.17
2019-01-11T09:16:09.747Z,96292.00
2019-01-11T09:18:40.867Z,96296.09
2019-01-11T09:21:11.476Z,96296.77
2019-01-11T09:23:42.163Z,96301.86
2019-01-11T09:26:11.682Z,96299.04
2019-01-11T09:28:41.315Z,96295.77
2019-01-11T09:31:11.526Z,96302.33
2019-01-11T09:33:42.095Z,96298.72
2019-01-11T09:36:11.974Z,96296.89
2019-01-11T09:38:41.995Z,96299.04
2019-01-11T09:41:11.805Z,96302.00
2019-01-11T09:43:41.824Z,96309.23
2019-01-11T09:46:12.149Z,96307.09
2019-01-11T09:48:42.065Z,96311.03
2019-01-11T09:51:15.692Z,96305.28
2019-01-11T09:53:43.849Z,96305.78
2019-01-11T09:56:13.762Z,96302.98
2019-01-11T09:58:43.776Z,96297.24
2019-01-11T10:01:15.432Z,96293.09
2019-01-11T10:03:45.446Z,96301.86
2019-01-11T10:06:15.260Z,96293.27
2019-01-11T10:08:45.274Z,96293.23
2019-01-11T10:11:15.193Z,96289.92
2019-01-11T10:13:45.005Z,96294.20
2019-01-11T10:16:15.038Z,96293.30
2019-01-11T10:18:45.061Z,96282.30
2019-01-11T10:21:22.094Z,96287.27
2019-01-11T10:23:49.583Z,96283.84
2019-01-11T10:26:19.516Z,96278.69
2019-01-11T10:28:51.048Z,96272.22
2019-01-11T10:31:20.869Z,96268.46
2019-01-11T10:33:50.805Z,96264.89
2019-01-11T10:36:20.695Z,96257.77
2019-01-11T10:38:50.632Z,96265.38
2019-01-11T10:41:20.554Z,96259.75
2019-01-11T10:43:50.439Z,96258.16
2019-01-11T10:46:36.948Z,96254.31
2019-01-11T10:49:07.064Z,96259.25
2019-01-11T10:51:36.981Z,96254.70
2019-01-11T10:54:08.429Z,96254.70
2019-01-11T10:56:38.347Z,96248.45
2019-01-11T10:59:08.467Z,96247.21
2019-01-11T11:01:38.382Z,96244.09
2019-01-11T11:04:08.297Z,96243.38
2019-01-11T11:06:37.874Z,96234.44
2019-01-11T11:09:08.654Z,96240.79
2019-01-11T11:11:38.240Z,96239.51
2019-01-11T11:14:07.759Z,96236.55
2019-01-11T11:16:37.287Z,96239.23
2019-01-11T11:19:06.834Z,96236.52
2019-01-11T11:21:36.300Z,96233.19
2019-01-11T11:24:06.028Z,96237.73
2019-01-11T11:26:35.474Z,96227.27
2019-01-11T11:29:05.019Z,96218.70
2019-01-11T11:31:34.481Z,96223.47
2019-01-11T11:34:04.027Z,96222.50
2019-01-11T11:36:33.818Z,96231.98
2019-01-11T11:39:04.988Z,96226.24
2019-01-11T11:41:34.497Z,96224.74
2019-01-11T11:44:03.938Z,96223.61
2019-01-11T11:46:33.398Z,96226.77
2019-01-11T11:49:02.838Z,96216.93
2019-01-11T11:51:32.386Z,96215.77
2019-01-11T11:54:01.848Z,96213.70
2019-01-11T11:56:31.379Z,96215.83
2019-01-11T11:59:00.838Z,96218.89
2019-01-11T12:01:30.312Z,96212.53
2019-01-11T12:03:59.757Z,96211.42
2019-01-11T12:06:29.242Z,96210.57
2019-01-11T12:08:59.032Z,96206.72
2019-01-11T12:11:28.527Z,96212.25
2019-01-11T12:13:58.047Z,96208.57
2019-01-11T12:16:27.563Z,96214.09
2019-01-11T12:18:57.042Z,96198.32
2019-01-11T12:21:26.586Z,96209.88
2019-01-11T12:23:56.052Z,96202.75
2019-01-11T12:26:25.791Z,96199.97
2019-01-11T12:28:55.267Z,96201.33
2019-01-11T12:31:24.791Z,96193.02
2019-01-11T12:33:54.384Z,96187.53
2019-01-11T12:36:23.966Z,96194.20
2019-01-11T12:38:53.395Z,96196.73
2019-01-11T12:41:23.345Z,96200.02
2019-01-11T12:43:52.888Z,96194.80
2019-01-11T12:46:22.357Z,96204.70
2019-01-11T12:48:51.808Z,96209.11
2019-01-11T12:51:21.279Z,96196.67
2019-01-11T12:53:50.874Z,96193.28
2019-01-11T12:56:20.367Z,96195.72
2019-01-11T12:58:49.805Z,96200.35
2019-01-11T13:01:19.364Z,96188.55
2019-01-11T13:03:48.859Z,96186.91
2019-01-11T13:06:18.343Z,96183.98
2019-01-11T13:08:47.797Z,96188.53
2019-01-11T13:11:17.403Z,96181.02
2019-01-11T13:13:47.315Z,96175.27
2019-01-11T13:16:16.800Z,96171.33
2019-01-11T13:18:46.327Z,96167.52
2019-01-11T13:21:16.143Z,96167.28
2019-01-11T13:23:45.643Z,96168.39
2019-01-11T13:26:15.087Z,96167.12
2019-01-11T13:28:44.652Z,96165.59
2019-01-11T13:31:14.112Z,96166.45
2019-01-11T13:33:43.746Z,96172.08
2019-01-11T13:36:14.914Z,96166.69
2019-01-11T13:38:44.439Z,96173.78
2019-01-11T13:41:13.920Z,96170.95
2019-01-11T13:43:43.419Z,96169.52
2019-01-11T13:46:13.355Z,96165.26
2019-01-11T13:48:43.012Z,96171.78
2019-01-11T13:51:12.554Z,96165.40
2019-01-11T13:53:42.122Z,96170.02
2019-01-11T13:56:11.604Z,96177.21
2019-01-11T13:58:41.103Z,96171.67
2019-01-11T14:01:10.606Z,96169.24
2019-01-11T14:03:40.069Z,96172.32
2019-01-11T14:06:09.517Z,96164.55
2019-01-11T14:08:39.136Z,96172.19
2019-01-11T14:11:08.586Z,96164.34
2019-01-11T14:13:38.093Z,96166.52
2019-01-11T14:16:08.449Z,96166.67
2019-01-11T14:18:38.472Z,96160.92
2019-01-11T14:21:08.370Z,96156.47
2019-01-11T14:23:37.837Z,96155.64
2019-01-11T14:26:08.932Z,96154.52
2019-01-11T14:28:38.446Z,96156.97
2019-01-11T14:31:07.898Z,96155.14
2019-01-11T14:33:37.433Z,96148.88
2019-01-11T14:36:08.668Z,96155.07
2019-01-11T14:38:38.145Z,96138.07
2019-01-11T14:41:07.646Z,96144.29
2019-01-11T14:43:37.232Z,96145.54
2019-01-11T14:46:06.674Z,96135.45
2019-01-11T14:48:36.261Z,96148.50
2019-01-11T14:51:05.856Z,96146.06
2019-01-11T14:53:35.854Z,96139.80
2019-01-11T14:56:05.682Z,96140.03
2019-01-11T14:58:35.132Z,96128.30
2019-01-11T15:01:04.707Z,96136.95
2019-01-11T15:03:34.175Z,96136.81
2019-01-11T15:06:03.721Z,96139.58
2019-01-11T15:08:33.206Z,96143.83
2019-01-11T15:11:02.697Z,96149.78
2019-01-11T15:13:32.203Z,96142.69
2019-01-11T15:16:01.660Z,96140.25
2019-01-11T15:18:31.200Z,96141.78
2019-01-11T15:21:00.773Z,96140.11
2019-01-11T15:23:30.334Z,96139.95
2019-01-11T15:26:00.234Z,96150.30
2019-01-11T15:28:29.782Z,96145.52
2019-01-11T15:30:59.297Z,96140.94
2019-01-11T15:33:28.859Z,96144.36
2019-01-11T15:35:58.413Z,96148.33
2019-01-11T15:38:28.111Z,96143.09
2019-01-11T15:40:57.626Z,96146.19
2019-01-11T15:43:27.140Z,96141.55
2019-01-11T15:46:02.738Z,96144.70
2019-01-11T15:48:47.556Z,96142.59
2019-01-11T15:51:19.416Z,96149.28
2019-01-11T15:53:48.959Z,96135.50
2019-01-11T15:56:22.433Z,96120.90
2019-01-11T15:58:52.389Z,96126.95
2019-01-11T16:01:21.871Z,96120.41
2019-01-11T16:03:51.376Z,96115.66
2019-01-11T16:06:27.780Z,96127.91
2019-01-11T16:09:24.106Z,96121.69
2019-01-11T16:12:06.963Z,96121.73
2019-01-11T16:14:59.529Z,96121.25
2019-01-11T16:17:34.255Z,96137.98
2019-01-11T16:20:05.637Z,96118.45
2019-01-11T16:22:39.616Z,96132.10
2019-01-11T16:25:10.437Z,96134.06
2019-01-11T16:27:40.345Z,96119.46
2019-01-11T16:30:15.754Z,96121.42
2019-01-11T16:32:45.682Z,96121.38
2019-01-11T16:35:15.181Z,96119.89
2019-01-11T16:37:44.639Z,96118.78
2019-01-11T16:40:15.056Z,96115.67
2019-01-11T16:42:44.600Z,96114.84
2019-01-11T16:45:15.569Z,96106.17
2019-01-11T16:47:45.135Z,96099.14
2019-01-11T16:50:18.308Z,96107.34
2019-01-11T16:52:47.836Z,96102.41
2019-01-11T16:55:17.368Z,96110.10
2019-01-11T16:57:46.823Z,96116.48
2019-01-11T17:00:19.611Z,96117.14
2019-01-11T17:02:49.364Z,96119.12
2019-01-11T17:05:18.862Z,96115.86
2019-01-11T17:07:48.358Z,96126.82
2019-01-11T17:10:18.851Z,96124.33
2019-01-11T17:12:48.326Z,96120.19
2019-01-11T17:15:19.470Z,96121.97
2019-01-11T17:17:48.991Z,96127.91
2019-01-11T17:20:18.936Z,96117.39
2019-01-11T17:22:52.994Z,96123.84
2019-01-11T17:25:19.666Z,96114.98
2019-01-11T17:27:49.115Z,96115.83
2019-01-11T17:30:18.780Z,96112.87
2019-01-11T17:32:48.380Z,96114.16
2019-01-11T17:35:18.052Z,96114.83
2019-01-11T17:37:47.513Z,96114.34
2019-01-11T17:40:17.073Z,96119.08
2019-01-11T17:42:46.629Z,96104.69
2019-01-11T17:45:16.623Z,96120.45
2019-01-11T17:47:46.128Z,96106.67
2019-01-11T17:50:16.679Z,96112.42
2019-01-11T17:52:46.374Z,96101.27
2019-01-11T17:55:16.122Z,96118.98
2019-01-11T17:57:45.596Z,96110.61
2019-01-11T18:00:16.418Z,96108.95
2019-01-11T18:02:45.883Z,96112.27
2019-01-11T18:05:16.120Z,96110.60
2019-01-11T18:07:46.537Z,96109.28
2019-01-11T18:10:16.004Z,96101.44
2019-01-11T18:12:45.738Z,96111.14
2019-01-11T18:15:19.447Z,96103.42
2019-01-11T18:17:49.120Z,96095.23
2019-01-11T18:20:22.478Z,96109.15
2019-01-11T18:22:52.040Z,96094.23
2019-01-11T18:25:21.605Z,96094.55
2019-01-11T18:27:51.080Z,96112.63
2019-01-11T18:30:21.347Z,96079.52
2019-01-11T18:32:50.905Z,96077.42
2019-01-11T18:35:20.483Z,96074.42
2019-01-11T18:37:49.954Z,96077.18
2019-01-11T18:40:25.406Z,96074.03
2019-01-11T18:42:54.905Z,96079.98
2019-01-11T18:45:28.589Z,96071.90
2019-01-11T18:47:55.679Z,96069.19
2019-01-11T18:50:26.156Z,96069.35
2019-01-11T18:52:55.666Z,96074.64
2019-01-11T18:55:25.163Z,96068.09
2019-01-11T18:57:55.273Z,96075.75
2019-01-11T19:00:25.895Z,96076.27
2019-01-11T19:02:55.338Z,96067.12
2019-01-11T19:05:24.829Z,96069.71
2019-01-11T19:07:55.056Z,96066.93
2019-01-11T19:10:26.483Z,96084.47
2019-01-11T19:12:55.920Z,96063.50
2019-01-11T19:15:27.844Z,96058.77
2019-01-11T19:17:57.343Z,96062.73
2019-01-11T19:20:28.785Z,96063.98
2019-01-11T19:22:58.372Z,96072.48
2019-01-11T19:25:27.926Z,96067.08
2019-01-11T19:27:57.467Z,96062.88
2019-01-11T19:30:45.523Z,96065.16
2019-01-11T19:33:16.912Z,96055.50
2019-01-11T19:35:52.190Z,96056.95
2019-01-11T19:38:22.394Z,96066.45
2019-01-11T19:40:52.646Z,96063.66
2019-01-11T19:43:22.143Z,96066.13
2019-01-11T19:45:51.653Z,96083.17
2019-01-11T19:48:21.147Z,96062.70
2019-01-11T19:50:50.683Z,96061.73
2019-01-11T19:53:27.119Z,96062.54
2019-01-11T19:55:51.456Z,96067.83
2019-01-11T19:58:20.954Z,96075.16
2019-01-11T20:00:52.542Z,96071.05
2019-01-11T20:03:22.091Z,96071.40
2019-01-11T20:05:53.536Z,96078.60
2019-01-11T20:08:23.175Z,96078.44
2019-01-11T20:10:52.728Z,96078.75
2019-01-11T20:13:22.267Z,96051.57
2019-01-11T20:15:51.767Z,96063.51
2019-01-11T20:18:21.310Z,96068.73
2019-01-11T20:20:53.100Z,96067.91
2019-01-11T20:23:22.658Z,96064.62
2019-01-11T20:25:52.204Z,96062.19
2019-01-11T20:28:21.792Z,96067.77
2019-01-11T20:30:51.255Z,96061.20
2019-01-11T20:33:20.737Z,96070.20
2019-01-11T20:35:50.200Z,96065.76
2019-01-11T20:38:19.674Z,96060.36
2019-01-11T20:40:49.252Z,96070.34
2019-01-11T20:43:19.312Z,96067.27
2019-01-11T20:45:49.208Z,96073.64
2019-01-11T20:48:19.109Z,96071.00
2019-01-11T20:50:48.940Z,96068.02
2019-01-11T20:53:18.428Z,96076.25
2019-01-11T20:55:47.881Z,96070.92
2019-01-11T20:58:17.422Z,96068.30
2019-01-11T21:00:46.906Z,96071.61
2019-01-11T21:03:16.461Z,96071.27
2019-01-11T21:05:46.176Z,96063.59
2019-01-11T21:08:15.704Z,96059.47
2019-01-11T21:10:45.201Z,96061.47
2019-01-11T21:13:14.686Z,96064.56
2019-01-11T21:15:44.247Z,96080.16
2019-01-11T21:18:13.784Z,96071.00
2019-01-11T21:20:43.284Z,96066.23
2019-01-11T21:23:13.421Z,96068.00
2019-01-11T21:25:43.341Z,96069.64
2019-01-11T21:28:12.901Z,96071.44
2019-01-11T21:30:42.396Z,96059.47
2019-01-11T21:33:11.912Z,96073.88
2019-01-11T21:35:41.397Z,96069.82
2019-01-11T21:38:10.919Z,96078.69
2019-01-11T21:40:40.378Z,96074.20
2019-01-11T21:43:09.830Z,96065.20
2019-01-11T21:45:39.345Z,96062.23
2019-01-11T21:48:08.833Z,96066.03
2019-01-11T21:50:38.398Z,96064.39
2019-01-11T21:53:07.909Z,96077.22
2019-01-11T21:55:37.816Z,96064.58
2019-01-11T21:58:07.491Z,96063.75
2019-01-11T22:00:38.796Z,96059.80
2019-01-11T22:03:09.301Z,96064.11
2019-01-11T22:05:39.720Z,96058.72
2019-01-11T22:08:09.197Z,96069.17
2019-01-11T22:10:38.660Z,96066.01
2019-01-11T22:13:08.154Z,96075.56
2019-01-11T22:15:37.716Z,96071.27
2019-01-11T22:18:07.291Z,96060.28
2019-01-11T22:20:36.821Z,96064.08
2019-01-11T22:23:06.326Z,96077.14
2019-01-11T22:25:35.804Z,96073.22
2019-01-11T22:28:05.798Z,96065.02
2019-01-11T22:30:35.297Z,96071.18
2019-01-11T22:33:04.782Z,96066.27
2019-01-11T22:35:34.270Z,96066.78
2019-01-11T22:38:03.775Z,96072.34
2019-01-11T22:40:33.324Z,96075.42
2019-01-11T22:43:02.799Z,96074.13
2019-01-11T22:45:32.413Z,96064.11
2019-01-11T22:48:01.843Z,96062.44
2019-01-11T22:50:31.304Z,96061.82
2019-01-11T22:53:00.773Z,96070.16
2019-01-11T22:55:30.345Z,96070.78
2019-01-11T22:57:59.855Z,96072.47
2019-01-11T23:00:49.234Z,96079.98
2019-01-11T23:03:26.309Z,96084.20
2019-01-11T23:06:09.007Z,96083.30
2019-01-11T23:08:34.460Z,96080.42
2019-01-11T23:11:11.337Z,96083.20
2019-01-11T23:13:40.805Z,96088.12
2019-01-11T23:16:14.709Z,96086.84
2019-01-11T23:18:44.649Z,96093.23
2019-01-11T23:21:14.102Z,96081.56
2019-01-11T23:23:43.562Z,96092.47
2019-01-11T23:26:13.026Z,96094.63
2019-01-11T23:28:42.477Z,96098.36
2019-01-11T23:31:12.026Z,96102.69
2019-01-11T23:33:41.993Z,96106.11
2019-01-11T23:36:14.893Z,96095.27
2019-01-11T23:38:44.363Z,96105.83
2019-01-11T23:41:13.804Z,96101.58
2019-01-11T23:43:43.267Z,96103.05
2019-01-11T23:46:12.742Z,96094.97
2019-01-11T23:48:42.227Z,96090.20
2019-01-11T23:51:11.678Z,96093.48
2019-01-11T23:53:41.148Z,96090.19
2019-01-11T23:56:10.603Z,96097.00
2019-01-11T23:58:40.145Z,96090.80
